Other Aviation Products
Issued by NWS

Home | Current Version | Previous Version | Text Only | Print | Product List | Glossary On
Versions: 1 2
000
NOAK58 PAWU 100336
OAVAWU
NATIONAL WEATHER SERVICE ALASKA AVIATION WEATHER UNIT
ANCHORAGE ALASKA

TO:    FORENSIC SERVICES MANAGER (W/OS23)
       NATIONAL WEATHER SERVICE
       C/O TELECOMMUNICATIONS GATEWAY
       SILVER SPRING, MD 20910

INFO:  ATTENTION ALASKA REGION - REGIONAL AVIATION METEOROLOGIST - W/AR1X1

ALPHA   N8648N, PA28,  PIC KYLE LONGERBEAN


BRAVO     LAKE CLARK, AFTER 07/1930Z


CHARLIE   CRASHED UNDER UNKNOWN CIRCUMSTANCES.
          3 SOB,  3 FATAL.

DELTA
METAR PAIL 071653Z 36015G21KT 10SM OVC010 M15/M17 A3016 RMK AO2
SLP218 T11501172=
SPECI PAIL 071715Z 36017G25KT 10SM OVC009 M15/M17 A3016 RMK AO2
 T11501172=
METAR PAIL 071753Z 36016G23KT 10SM OVC009 M16/M17 A3017 RMK AO2
 SLP221 T11561172 11139 21156 53005=
SPECI PAIL 071811Z 36013G23KT 10SM OVC011 M16/M17 A3017 RMK AO2
 T11561172=
METAR PAIL 071853Z 36016G22KT 10SM OVC012 M16/M17 A3016 RMK AO2
 SLP221 T11561172=
METAR PAIL 071953Z 36016KT 10SM OVC013 M16/M17 A3018 RMK AO2 SLP225
T11561172=
METAR PAIL 072053Z 36015G21KT 10SM OVC010 M16/M17 A3018 RMK AO2
SLP225 T11611172 53004=
SPECI PAIL 072148Z 36015G21KT 10SM SCT010 M16/M17 A3018 RMK AO2=
METAR PAIL 072153Z 36014G21KT 10SM SCT010 M16/M17 A3018 RMK AO2
SLP227 T11611172=


ECHO      UNKNOWN


FOXTROT
UMAK18 PAKN 071201 COR
SGLAKN
70326 TTBB  57128 70326 00021 14330 11014 15149 22997 16140
33994 15137 44987 10319 55975 08111 66952 07901 77941 06902
88927 06512 99894 07916 11811 13904 22793 12712 33761 14931
44680 20341 55645 22758 66587 27157 77572 27356 88559 28556
70326 TTBB  57128 70326 00021 14330 11014 15149 22997 16140
33994 15137 44987 10319 55975 08111 66952 07901 77941 06902
88927 06512 99894 07916 11811 13904 22793 12712 33761 14931
44680 20341 55645 22758 66587 27157 77572 27356 88559 28556
99534 30559 11512 32361 22485 34550 33464 36946 44427 41156
55398 44943 66390 44950 77367 47559 88346 50758 99293 56559
11285 56759 22265 54963 33260 52964 44255 52366 55250 52767
66238 51971 77231 52572 88206 49774 99183 49774 11181 49174
22176 48775 33166 48575 44147 49973 55145 50772 66131 50974
77115 53374 88106 50975 31313 58208 81101 41414 8847/ 51515
10181=

PPBB  57128 70326 90012 35517 02514 04010 90346 06012 03009
09008 90789 09508 09007 08506 91245 09508 06007 05503 916//
05505 9205/ 02504 01005 93012 33007 36017 31512 93346 34016
35020 32021 937// 33526 950// 33514=


GOLF      UNKNOWN

HOTEL     NONE

TRENZ, METEOROLOGIST, AAWU






USA.gov is the U.S. government's official web portal to all federal, state and local government web resources and services.